Time,TemperatureF,DewpointF,PressureIn,WindDirection,WindDirectionDegrees,WindSpeedMPH,WindSpeedGustMPH,Humidity,HourlyPrecipIn,Conditions,Clouds,dailyrainin,SoftwareType,DateUTC
2013-02-21 00:10:00,37.2,33.1,30.14,South,180,0.0,3.1,85,0.00,,,0.16,open2300-1.11,2013-02-21 08:10:00,
2013-02-21 00:20:00,37.0,32.9,30.13,SSE,157,0.0,1.1,85,0.00,,,0.16,open2300-1.11,2013-02-21 08:20:00,
2013-02-21 00:30:00,36.7,32.5,30.14,SE,135,0.0,0.0,85,0.00,,,0.16,open2300-1.11,2013-02-21 08:30:00,
2013-02-21 00:40:00,36.3,32.2,30.14,South,180,0.0,2.2,85,0.00,,,0.16,open2300-1.11,2013-02-21 08:40:00,
2013-02-21 00:50:00,36.0,31.8,30.15,South,180,0.0,3.6,85,0.00,,,0.16,open2300-1.11,2013-02-21 08:50:00,
2013-02-21 01:10:00,36.1,32.3,30.15,ESE,112,0.0,0.0,86,0.00,,,0.16,open2300-1.11,2013-02-21 09:10:00,
2013-02-21 01:20:00,36.3,32.5,30.15,SE,135,0.0,0.0,86,0.00,,,0.16,open2300-1.11,2013-02-21 09:20:00,
2013-02-21 01:30:00,36.5,32.7,30.15,SSE,157,0.0,0.0,86,0.00,,,0.16,open2300-1.11,2013-02-21 09:30:00,
2013-02-21 01:40:00,36.5,32.7,30.16,SE,135,0.0,0.0,86,0.00,,,0.16,open2300-1.11,2013-02-21 09:40:00,
2013-02-21 01:50:00,36.3,32.5,30.16,SE,135,0.0,2.9,86,0.00,,,0.16,open2300-1.11,2013-02-21 09:50:00,
2013-02-21 02:10:00,36.1,32.3,30.17,SSE,157,0.0,0.0,86,0.00,,,0.16,open2300-1.11,2013-02-21 10:10:00,
2013-02-21 02:20:00,36.1,32.3,30.17,South,180,0.0,0.0,86,0.00,,,0.16,open2300-1.11,2013-02-21 10:20:00,
2013-02-21 02:30:00,36.5,32.9,30.18,SSW,202,0.0,1.6,87,0.00,,,0.16,open2300-1.11,2013-02-21 10:30:00,
2013-02-21 02:40:00,36.7,33.1,30.18,SSW,202,0.0,0.0,87,0.00,,,0.16,open2300-1.11,2013-02-21 10:40:00,
2013-02-21 02:50:00,37.2,33.7,30.18,SSW,202,0.0,0.4,87,0.00,,,0.16,open2300-1.11,2013-02-21 10:50:00,
2013-02-21 03:10:00,37.4,33.8,30.18,South,180,0.0,4.0,87,0.00,,,0.16,open2300-1.11,2013-02-21 11:10:00,
2013-02-21 03:20:00,37.6,34.0,30.18,South,180,0.0,4.0,87,0.00,,,0.16,open2300-1.11,2013-02-21 11:20:00,
2013-02-21 03:30:00,37.4,33.8,30.18,SSW,202,0.0,3.4,87,0.00,,,0.16,open2300-1.11,2013-02-21 11:30:00,
2013-02-21 03:40:00,37.2,33.7,30.18,SSW,202,0.0,2.7,87,0.00,,,0.16,open2300-1.11,2013-02-21 11:40:00,
2013-02-21 03:50:00,37.0,33.5,30.19,South,180,0.0,5.1,87,0.00,,,0.16,open2300-1.11,2013-02-21 11:50:00,
2013-02-21 04:10:00,37.0,33.5,30.19,SSW,202,0.0,5.1,87,0.00,,,0.16,open2300-1.11,2013-02-21 12:10:00,
2013-02-21 04:20:00,37.0,33.5,30.18,South,180,0.0,3.6,87,0.00,,,0.16,open2300-1.11,2013-02-21 12:20:00,
2013-02-21 04:30:00,37.0,33.5,30.18,SSE,157,0.0,3.6,87,0.00,,,0.16,open2300-1.11,2013-02-21 12:30:00,
2013-02-21 04:40:00,36.7,33.1,30.18,South,180,0.0,2.9,87,0.00,,,0.16,open2300-1.11,2013-02-21 12:40:00,
2013-02-21 04:50:00,36.3,32.8,30.18,South,180,0.0,5.1,87,0.00,,,0.16,open2300-1.11,2013-02-21 12:50:00,
2013-02-21 05:10:00,35.8,32.2,30.19,South,180,0.0,6.3,87,0.00,,,0.16,open2300-1.11,2013-02-21 13:10:00,
2013-02-21 05:20:00,35.8,32.2,30.19,SSW,202,0.7,6.3,87,0.00,,,0.16,open2300-1.11,2013-02-21 13:20:00,
2013-02-21 05:30:00,36.0,32.4,30.19,South,180,0.0,6.3,87,0.00,,,0.16,open2300-1.11,2013-02-21 13:30:00,
2013-02-21 05:40:00,36.1,32.6,30.19,SSW,202,0.0,5.6,87,0.00,,,0.16,open2300-1.11,2013-02-21 13:40:00,
2013-02-21 05:50:00,35.8,32.2,30.20,SSW,202,0.0,0.0,87,0.00,,,0.16,open2300-1.11,2013-02-21 13:50:00,
2013-02-21 06:00:00,35.8,32.2,30.21,SW,225,0.0,0.0,87,0.00,,,0.16,open2300-1.11,2013-02-21 14:00:00,
2013-02-21 06:10:00,36.0,32.7,30.20,South,180,0.0,0.0,88,0.00,,,0.16,open2300-1.11,2013-02-21 14:10:00,
2013-02-21 06:20:00,36.1,32.9,30.20,SSW,202,0.0,0.0,88,0.00,,,0.16,open2300-1.11,2013-02-21 14:20:00,
2013-02-21 06:30:00,36.3,33.0,30.20,SSW,202,0.0,0.0,88,0.00,,,0.16,open2300-1.11,2013-02-21 14:30:00,
2013-02-21 06:40:00,36.7,33.4,30.20,SW,225,0.0,1.1,88,0.00,,,0.16,open2300-1.11,2013-02-21 14:40:00,
2013-02-21 06:50:00,37.2,33.9,30.22,WSW,247,0.0,2.2,88,0.00,,,0.16,open2300-1.11,2013-02-21 14:50:00,
2013-02-21 07:00:00,37.4,34.1,30.22,SSW,202,0.0,0.0,88,0.00,,,0.16,open2300-1.11,2013-02-21 15:00:00,
2013-02-21 07:10:00,37.6,34.3,30.21,South,180,0.0,3.1,88,0.00,,,0.16,open2300-1.11,2013-02-21 15:10:00,
2013-02-21 07:20:00,37.8,34.5,30.22,SW,225,0.0,4.2,88,0.00,,,0.16,open2300-1.11,2013-02-21 15:20:00,
2013-02-21 07:30:00,37.9,34.7,30.22,South,180,0.0,6.3,88,0.00,,,0.16,open2300-1.11,2013-02-21 15:30:00,
2013-02-21 07:40:00,37.9,34.7,30.22,SSE,157,0.0,4.2,88,0.00,,,0.16,open2300-1.11,2013-02-21 15:40:00,
2013-02-21 07:50:00,38.1,35.1,30.23,SSE,157,0.0,4.5,89,0.00,,,0.16,open2300-1.11,2013-02-21 15:50:00,
2013-02-21 08:00:00,38.7,35.7,30.23,South,180,0.0,6.7,89,0.00,,,0.16,open2300-1.11,2013-02-21 16:00:00,
2013-02-21 08:10:00,39.0,36.0,30.23,SSW,202,2.9,7.2,89,0.00,,,0.16,open2300-1.11,2013-02-21 16:10:00,
2013-02-21 08:20:00,39.0,36.0,30.23,SSW,202,0.0,4.5,89,0.00,,,0.16,open2300-1.11,2013-02-21 16:20:00,
2013-02-21 08:30:00,39.4,36.4,30.24,South,180,0.0,0.0,89,0.00,,,0.16,open2300-1.11,2013-02-21 16:30:00,
2013-02-21 08:40:00,39.7,36.7,30.24,South,180,5.6,7.4,89,0.00,,,0.16,open2300-1.11,2013-02-21 16:40:00,
2013-02-21 08:50:00,39.9,36.9,30.24,SSE,157,0.0,6.7,89,0.00,,,0.16,open2300-1.11,2013-02-21 16:50:00,
2013-02-21 09:00:00,40.3,37.3,30.24,South,180,1.1,8.5,89,0.00,,,0.16,open2300-1.11,2013-02-21 17:00:00,
2013-02-21 09:10:00,40.8,37.5,30.24,SSE,157,2.9,8.1,88,0.00,,,0.16,open2300-1.11,2013-02-21 17:10:00,
2013-02-21 09:20:00,41.5,38.2,30.24,South,180,5.1,7.4,88,0.00,,,0.16,open2300-1.11,2013-02-21 17:20:00,
2013-02-21 09:30:00,42.1,38.8,30.24,South,180,4.9,11.0,88,0.00,,,0.16,open2300-1.11,2013-02-21 17:30:00,
2013-02-21 09:40:00,42.6,39.3,30.24,SSE,157,4.5,7.6,88,0.00,,,0.16,open2300-1.11,2013-02-21 17:40:00,
2013-02-21 09:50:00,43.5,39.9,30.24,SSW,202,0.0,7.4,87,0.00,,,0.16,open2300-1.11,2013-02-21 17:50:00,
2013-02-21 10:00:00,44.4,40.8,30.24,South,180,3.1,8.9,87,0.00,,,0.16,open2300-1.11,2013-02-21 18:00:00,
2013-02-21 10:10:00,45.0,41.0,30.24,SSW,202,0.0,7.8,86,0.00,,,0.16,open2300-1.11,2013-02-21 18:10:00,
2013-02-21 10:20:00,45.3,40.8,30.24,SSE,157,9.8,10.5,84,0.00,,,0.16,open2300-1.11,2013-02-21 18:20:00,
2013-02-21 10:30:00,45.7,40.8,30.24,South,180,5.4,12.3,83,0.00,,,0.16,open2300-1.11,2013-02-21 18:30:00,
2013-02-21 10:40:00,45.7,40.2,30.23,South,180,5.8,10.1,81,0.00,,,0.16,open2300-1.11,2013-02-21 18:40:00,
2013-02-21 10:50:00,46.0,40.6,30.23,SSW,202,6.0,10.7,81,0.00,,,0.16,open2300-1.11,2013-02-21 18:50:00,
2013-02-21 11:00:00,46.2,40.5,30.23,SSW,202,7.8,8.3,80,0.00,,,0.16,open2300-1.11,2013-02-21 19:00:00,
2013-02-21 11:10:00,46.6,40.1,30.23,South,180,7.6,12.3,78,0.00,,,0.16,open2300-1.11,2013-02-21 19:10:00,
2013-02-21 11:20:00,46.9,40.1,30.23,South,180,8.3,11.6,77,0.00,,,0.16,open2300-1.11,2013-02-21 19:20:00,
2013-02-21 11:30:00,46.9,40.1,30.24,SSE,157,0.0,12.3,77,0.00,,,0.16,open2300-1.11,2013-02-21 19:30:00,
2013-02-21 11:40:00,46.9,39.8,30.24,South,180,6.7,12.8,76,0.00,,,0.16,open2300-1.11,2013-02-21 19:40:00,
2013-02-21 11:50:00,46.6,39.4,30.23,SE,135,6.9,10.7,76,0.00,,,0.16,open2300-1.11,2013-02-21 19:50:00,
2013-02-21 12:00:00,46.8,39.6,30.23,SSW,202,6.0,12.8,76,0.00,,,0.16,open2300-1.11,2013-02-21 20:00:00,
2013-02-21 12:10:00,46.9,39.8,30.23,South,180,5.8,11.2,76,0.00,,,0.16,open2300-1.11,2013-02-21 20:10:00,
2013-02-21 12:20:00,47.1,40.3,30.23,South,180,5.1,10.3,77,0.00,,,0.16,open2300-1.11,2013-02-21 20:20:00,
2013-02-21 12:30:00,46.8,39.9,30.24,SSW,202,6.5,10.3,77,0.00,,,0.16,open2300-1.11,2013-02-21 20:30:00,
2013-02-21 12:40:00,46.2,39.8,30.23,SW,225,5.8,10.3,78,0.02,,,0.18,open2300-1.11,2013-02-21 20:40:00,
2013-02-21 12:50:00,45.7,39.2,30.23,South,180,4.9,9.4,78,0.02,,,0.18,open2300-1.11,2013-02-21 20:50:00,
2013-02-21 13:00:00,45.1,39.0,30.23,SSW,202,0.0,8.3,79,0.04,,,0.20,open2300-1.11,2013-02-21 21:00:00,
2013-02-21 13:10:00,45.0,39.2,30.22,SSW,202,4.2,9.6,80,0.06,,,0.22,open2300-1.11,2013-02-21 21:10:00,
2013-02-21 13:20:00,45.0,39.5,30.22,South,180,5.1,8.1,81,0.06,,,0.22,open2300-1.11,2013-02-21 21:20:00,
2013-02-21 13:30:00,45.0,39.5,30.21,South,180,0.0,8.9,81,0.06,,,0.22,open2300-1.11,2013-02-21 21:30:00,
2013-02-21 13:40:00,45.1,39.7,30.20,SSE,157,0.0,8.5,81,0.04,,,0.22,open2300-1.11,2013-02-21 21:40:00,
2013-02-21 13:50:00,45.1,39.7,30.20,SSE,157,4.7,7.6,81,0.04,,,0.22,open2300-1.11,2013-02-21 21:50:00,
2013-02-21 14:00:00,45.1,39.7,30.21,SSW,202,6.9,10.7,81,0.00,,,0.22,open2300-1.11,2013-02-21 22:00:00,
2013-02-21 14:10:00,45.0,39.5,30.21,SSE,157,7.8,10.5,81,0.00,,,0.22,open2300-1.11,2013-02-21 22:10:00,
2013-02-21 14:20:00,45.1,39.7,30.21,SSE,157,8.1,10.1,81,0.00,,,0.22,open2300-1.11,2013-02-21 22:20:00,
2013-02-21 14:30:00,45.1,39.4,30.21,SSW,202,8.1,11.2,80,0.00,,,0.22,open2300-1.11,2013-02-21 22:30:00,
2013-02-21 14:40:00,45.1,39.4,30.21,South,180,7.4,11.0,80,0.00,,,0.22,open2300-1.11,2013-02-21 22:40:00,
2013-02-21 14:50:00,45.3,39.6,30.20,SSW,202,8.5,12.8,80,0.00,,,0.22,open2300-1.11,2013-02-21 22:50:00,
2013-02-21 15:00:00,45.5,39.7,30.20,South,180,0.0,8.9,80,0.00,,,0.16,open2300-1.11,2013-02-21 23:00:00,
2013-02-21 15:10:00,45.7,39.9,30.20,South,180,0.0,11.9,80,0.00,,,0.16,open2300-1.11,2013-02-21 23:10:00,
2013-02-21 15:20:00,45.7,39.9,30.20,South,180,11.0,11.0,80,0.00,,,0.16,open2300-1.11,2013-02-21 23:20:00,
2013-02-21 15:30:00,45.9,39.8,30.20,South,180,5.4,12.1,79,0.00,,,0.16,open2300-1.11,2013-02-21 23:30:00,
2013-02-21 15:40:00,46.0,40.3,30.20,SSE,157,3.8,10.7,80,0.00,,,0.16,open2300-1.11,2013-02-21 23:40:00,
2013-02-21 15:50:00,46.4,40.6,30.20,SSW,202,8.9,8.9,80,0.00,,,0.16,open2300-1.11,2013-02-21 23:50:00,
2013-02-21 16:00:00,46.4,40.0,30.20,South,180,3.1,13.0,78,0.00,,,0.16,open2300-1.11,2013-02-22 00:00:00,
2013-02-21 16:10:00,46.2,39.8,30.19,SSW,202,8.1,12.5,78,0.00,,,0.16,open2300-1.11,2013-02-22 00:10:00,
2013-02-21 16:20:00,46.0,39.6,30.19,ESE,112,3.1,11.2,78,0.00,,,0.16,open2300-1.11,2013-02-22 00:20:00,
2013-02-21 16:30:00,45.7,39.6,30.19,South,180,0.0,10.5,79,0.00,,,0.16,open2300-1.11,2013-02-22 00:30:00,
2013-02-21 16:40:00,45.3,39.2,30.19,South,180,8.3,11.4,79,0.00,,,0.16,open2300-1.11,2013-02-22 00:40:00,
2013-02-21 16:50:00,45.0,38.9,30.19,SSE,157,3.8,15.7,79,0.00,,,0.16,open2300-1.11,2013-02-22 00:50:00,
2013-02-21 17:00:00,44.6,38.5,30.19,SSE,157,7.2,11.9,79,0.00,,,0.16,open2300-1.11,2013-02-22 01:00:00,
2013-02-21 17:10:00,44.4,38.7,30.20,SSE,157,2.7,9.2,80,0.00,,,0.12,open2300-1.11,2013-02-22 01:10:00,
2013-02-21 17:20:00,44.1,38.3,30.20,SE,135,7.8,13.0,80,0.00,,,0.12,open2300-1.11,2013-02-22 01:20:00,
2013-02-21 17:30:00,43.9,38.1,30.19,South,180,5.1,9.4,80,0.00,,,0.12,open2300-1.11,2013-02-22 01:30:00,
2013-02-21 17:40:00,43.5,38.1,30.20,SSE,157,0.0,10.7,81,0.00,,,0.12,open2300-1.11,2013-02-22 01:40:00,
2013-02-21 17:50:00,43.3,37.9,30.20,South,180,6.0,8.3,81,0.00,,,0.12,open2300-1.11,2013-02-22 01:50:00,
2013-02-21 18:00:00,43.2,37.7,30.20,SSW,202,5.6,13.2,81,0.00,,,0.08,open2300-1.11,2013-02-22 02:00:00,
2013-02-21 18:10:00,43.0,37.5,30.20,SSW,202,7.6,9.6,81,0.00,,,0.08,open2300-1.11,2013-02-22 02:10:00,
2013-02-21 18:20:00,43.0,37.5,30.20,South,180,5.8,8.1,81,0.00,,,0.08,open2300-1.11,2013-02-22 02:20:00,
2013-02-21 18:30:00,42.8,37.3,30.20,SSE,157,6.5,10.1,81,0.00,,,0.08,open2300-1.11,2013-02-22 02:30:00,
2013-02-21 18:40:00,42.6,37.2,30.20,South,180,5.4,10.1,81,0.00,,,0.08,open2300-1.11,2013-02-22 02:40:00,
2013-02-21 18:50:00,42.6,37.2,30.21,SSE,157,0.0,9.2,81,0.00,,,0.08,open2300-1.11,2013-02-22 02:50:00,
2013-02-21 19:00:00,42.4,37.3,30.21,South,180,5.8,13.0,82,0.00,,,0.06,open2300-1.11,2013-02-22 03:00:00,
2013-02-21 19:10:00,42.4,37.3,30.21,South,180,5.4,11.0,82,0.00,,,0.06,open2300-1.11,2013-02-22 03:10:00,
2013-02-21 19:20:00,42.4,37.3,30.21,SSW,202,7.6,9.4,82,0.00,,,0.06,open2300-1.11,2013-02-22 03:20:00,
2013-02-21 19:30:00,42.1,36.9,30.21,SSE,157,7.6,8.7,82,0.00,,,0.06,open2300-1.11,2013-02-22 03:30:00,
2013-02-21 19:40:00,42.1,37.2,30.21,South,180,8.7,12.3,83,0.00,,,0.06,open2300-1.11,2013-02-22 03:40:00,
2013-02-21 19:50:00,42.1,37.2,30.21,South,180,7.2,11.0,83,0.00,,,0.06,open2300-1.11,2013-02-22 03:50:00,
2013-02-21 20:00:00,42.1,37.2,30.21,SSW,202,8.3,10.5,83,0.00,,,0.06,open2300-1.11,2013-02-22 04:00:00,
2013-02-21 20:10:00,42.1,37.2,30.20,South,180,9.6,9.6,83,0.00,,,0.06,open2300-1.11,2013-02-22 04:10:00,
2013-02-21 20:20:00,42.1,37.2,30.20,SSE,157,0.0,10.1,83,0.00,,,0.06,open2300-1.11,2013-02-22 04:20:00,
2013-02-21 20:30:00,42.1,37.2,30.20,SW,225,7.4,9.8,83,0.00,,,0.06,open2300-1.11,2013-02-22 04:30:00,
2013-02-21 20:40:00,42.1,37.2,30.20,South,180,9.4,13.6,83,0.00,,,0.06,open2300-1.11,2013-02-22 04:40:00,
2013-02-21 20:50:00,42.1,37.2,30.20,SSW,202,6.3,11.9,83,0.00,,,0.06,open2300-1.11,2013-02-22 04:50:00,
2013-02-21 21:00:00,42.1,37.2,30.20,SSW,202,7.8,10.1,83,0.00,,,0.06,open2300-1.11,2013-02-22 05:00:00,
2013-02-21 21:10:00,42.1,37.2,30.21,South,180,9.2,11.0,83,0.00,,,0.06,open2300-1.11,2013-02-22 05:10:00,
2013-02-21 21:20:00,42.1,36.9,30.20,South,180,7.2,11.0,82,0.00,,,0.06,open2300-1.11,2013-02-22 05:20:00,
2013-02-21 21:30:00,42.1,36.9,30.21,SSW,202,1.6,10.3,82,0.00,,,0.06,open2300-1.11,2013-02-22 05:30:00,
2013-02-21 21:40:00,42.1,37.2,30.21,SSE,157,6.5,14.1,83,0.00,,,0.06,open2300-1.11,2013-02-22 05:40:00,
2013-02-21 21:50:00,42.1,37.2,30.21,SSE,157,7.8,12.8,83,0.00,,,0.06,open2300-1.11,2013-02-22 05:50:00,
2013-02-21 22:00:00,42.1,37.2,30.21,SSE,157,6.9,12.1,83,0.00,,,0.06,open2300-1.11,2013-02-22 06:00:00,
2013-02-21 22:10:00,41.9,37.1,30.22,South,180,10.3,11.0,83,0.00,,,0.06,open2300-1.11,2013-02-22 06:10:00,
2013-02-21 22:20:00,41.7,36.9,30.22,South,180,2.5,12.5,83,0.00,,,0.06,open2300-1.11,2013-02-22 06:20:00,
2013-02-21 22:30:00,41.5,36.7,30.22,South,180,4.2,12.8,83,0.00,,,0.06,open2300-1.11,2013-02-22 06:30:00,
2013-02-21 22:40:00,41.5,36.7,30.22,SSE,157,6.7,11.2,83,0.00,,,0.06,open2300-1.11,2013-02-22 06:40:00,
2013-02-21 22:50:00,41.4,36.5,30.22,South,180,7.6,9.8,83,0.00,,,0.06,open2300-1.11,2013-02-22 06:50:00,
2013-02-21 23:00:00,41.4,36.5,30.23,South,180,8.3,11.9,83,0.00,,,0.06,open2300-1.11,2013-02-22 07:00:00,
2013-02-21 23:10:00,41.4,36.8,30.22,South,180,7.4,9.8,84,0.00,,,0.06,open2300-1.11,2013-02-22 07:10:00,
2013-02-21 23:20:00,41.4,36.8,30.22,SSE,157,5.6,11.9,84,0.00,,,0.06,open2300-1.11,2013-02-22 07:20:00,
2013-02-21 23:30:00,41.4,36.8,30.21,South,180,2.0,9.8,84,0.00,,,0.06,open2300-1.11,2013-02-22 07:30:00,
2013-02-21 23:40:00,41.2,36.6,30.20,South,180,6.7,10.7,84,0.00,,,0.06,open2300-1.11,2013-02-22 07:40:00,
2013-02-21 23:50:00,41.0,36.5,30.20,SSW,202,6.0,10.1,84,0.00,,,0.06,open2300-1.11,2013-02-22 07:50:00,